Time;durP1;ratioP1;P1;durP2;ratioP2;P2;SDS_P1;SDS_P2;PMS_P1;PMS_P2;Temp;Humidity;BMP_temperature;BMP_pressure;BME280_temperature;BME280_humidity;BME280_pressure;Samples;Min_cycle;Max_cycle;Signal;HPM_P1;HPM_P2
2023/06/05 00:00:14;;;;;;;8.30;4.00;;;;;;;;;;5034668;28;92498;-73
2023/06/05 00:02:40;;;;;;;4.40;3.60;;;;;;;;;;5034462;27;94315;-73
2023/06/05 00:05:10;;;;;;;8.88;3.50;;;;;;;;;;5037506;27;94869;-73
2023/06/05 00:07:39;;;;;;;7.68;3.78;;;;;;;;;;5034727;28;94207;-73
2023/06/05 00:10:06;;;;;;;6.25;3.90;;;;;;;;;;5034408;28;94726;-73
2023/06/05 00:12:33;;;;;;;7.30;4.05;;;;;;;;;;5034864;27;91652;-73
2023/06/05 00:14:59;;;;;;;11.90;4.15;;;;;;;;;;5034584;28;93462;-73
2023/06/05 00:17:26;;;;;;;8.32;3.95;;;;;;;;;;5016416;28;94487;-73
2023/06/05 00:19:54;;;;;;;7.32;4.13;;;;;;;;;;5014551;27;94917;-73
2023/06/05 00:22:20;;;;;;;6.32;4.05;;;;;;;;;;5016350;28;96689;-73
2023/06/05 00:24:46;;;;;;;9.68;4.70;;;;;;;;;;5034124;27;94500;-73
2023/06/05 00:27:13;;;;;;;7.22;3.83;;;;;;;;;;5037416;28;92486;-73
2023/06/05 00:29:39;;;;;;;11.52;4.15;;;;;;;;;;5034089;27;94803;-73
2023/06/05 00:32:06;;;;;;;5.72;4.20;;;;;;;;;;5018157;28;92412;-73
2023/06/05 00:34:32;;;;;;;6.95;4.28;;;;;;;;;;5037642;27;94474;-73
2023/06/05 00:36:59;;;;;;;7.22;4.05;;;;;;;;;;5038308;28;96830;-73
2023/06/05 00:39:26;;;;;;;12.80;4.50;;;;;;;;;;5036562;27;92419;-73
2023/06/05 00:41:52;;;;;;;9.43;4.72;;;;;;;;;;5037649;27;94367;-73
2023/06/05 00:44:20;;;;;;;7.85;4.72;;;;;;;;;;5035825;27;95937;-73
2023/06/05 00:46:48;;;;;;;7.43;4.15;;;;;;;;;;5037509;28;92432;-73
2023/06/05 00:49:15;;;;;;;8.13;4.50;;;;;;;;;;5040325;28;94247;-73
2023/06/05 00:51:43;;;;;;;8.23;4.80;;;;;;;;;;5037904;27;92409;-73
2023/06/05 00:54:10;;;;;;;17.33;4.85;;;;;;;;;;5036104;27;94291;-73
2023/06/05 00:56:37;;;;;;;9.90;4.75;;;;;;;;;;5037304;27;94514;-73
2023/06/05 00:59:03;;;;;;;7.68;5.00;;;;;;;;;;5037316;27;92435;-73
2023/06/05 01:01:30;;;;;;;13.02;5.35;;;;;;;;;;5036221;28;94097;-73
2023/06/05 01:03:59;;;;;;;9.13;4.70;;;;;;;;;;5037128;27;94982;-73
2023/06/05 01:06:26;;;;;;;10.95;4.80;;;;;;;;;;5019493;28;92473;-73
2023/06/05 01:08:53;;;;;;;6.60;4.28;;;;;;;;;;5035714;27;94745;-73
2023/06/05 01:11:23;;;;;;;8.73;4.88;;;;;;;;;;5038941;27;94447;-73
2023/06/05 01:13:56;;;;;;;10.57;5.57;;;;;;;;;;5037439;28;94242;-73
2023/06/05 01:16:30;;;;;;;7.72;4.68;;;;;;;;;;5030823;27;94829;-73
2023/06/05 01:19:02;;;;;;;17.83;4.90;;;;;;;;;;5037189;28;92405;-73
2023/06/05 01:21:30;;;;;;;10.60;4.68;;;;;;;;;;5036969;28;96799;-73
2023/06/05 01:23:56;;;;;;;8.90;4.78;;;;;;;;;;5018272;28;96548;-73
2023/06/05 01:26:27;;;;;;;23.45;6.25;;;;;;;;;;5037260;28;91690;-73
2023/06/05 01:28:54;;;;;;;5.75;4.57;;;;;;;;;;5036973;28;93552;-73
2023/06/05 01:31:22;;;;;;;12.82;5.07;;;;;;;;;;5022329;28;94455;-73
2023/06/05 01:34:01;;;;;;;9.32;4.97;;;;;;;;;;5035264;28;94791;-73
2023/06/05 01:36:28;;;;;;;13.13;5.38;;;;;;;;;;5019243;28;97988;-73
2023/06/05 01:38:58;;;;;;;10.40;4.85;;;;;;;;;;5018953;28;92443;-73
2023/06/05 01:41:26;;;;;;;10.07;5.25;;;;;;;;;;5036635;28;94262;-73
2023/06/05 01:43:55;;;;;;;18.73;5.65;;;;;;;;;;5035376;27;95248;-73
2023/06/05 01:46:22;;;;;;;11.00;5.38;;;;;;;;;;5018810;28;92431;-73
2023/06/05 01:48:51;;;;;;;11.25;5.80;;;;;;;;;;5036640;28;94576;-73
2023/06/05 01:51:17;;;;;;;10.85;5.13;;;;;;;;;;5036935;28;94276;-73
2023/06/05 01:53:48;;;;;;;8.18;5.55;;;;;;;;;;5021647;28;92599;-73
2023/06/05 01:56:19;;;;;;;11.75;5.53;;;;;;;;;;5018405;28;94530;-73
2023/06/05 01:58:46;;;;;;;10.23;5.93;;;;;;;;;;5034829;27;94832;-72
2023/06/05 02:01:15;;;;;;;6.45;4.80;;;;;;;;;;5018510;28;97137;-72
2023/06/05 02:03:47;;;;;;;10.32;5.82;;;;;;;;;;5036414;28;94677;-73
2023/06/05 02:06:15;;;;;;;12.65;6.22;;;;;;;;;;5036679;27;92418;-73
2023/06/05 02:08:42;;;;;;;10.95;6.30;;;;;;;;;;5036521;28;94581;-73
2023/06/05 02:11:10;;;;;;;12.00;5.47;;;;;;;;;;5036091;27;94534;-73
2023/06/05 02:13:40;;;;;;;10.73;5.97;;;;;;;;;;5036414;27;92515;-73
2023/06/05 02:16:09;;;;;;;9.93;6.23;;;;;;;;;;5039849;28;93361;-73
2023/06/05 02:18:37;;;;;;;16.50;6.45;;;;;;;;;;5036551;27;92467;-73
2023/06/05 02:21:03;;;;;;;13.30;5.47;;;;;;;;;;5036157;27;97319;-73
2023/06/05 02:23:30;;;;;;;9.15;5.72;;;;;;;;;;5016283;28;96974;-73
2023/06/05 02:25:57;;;;;;;10.38;6.07;;;;;;;;;;5035706;27;92423;-73
2023/06/05 02:28:24;;;;;;;21.63;6.07;;;;;;;;;;5036382;28;94230;-73
2023/06/05 02:30:50;;;;;;;8.45;6.07;;;;;;;;;;5035551;28;94892;-73
2023/06/05 02:33:17;;;;;;;13.05;5.80;;;;;;;;;;5035849;27;92480;-72
2023/06/05 02:35:43;;;;;;;9.93;6.20;;;;;;;;;;5036024;27;94588;-72
2023/06/05 02:38:12;;;;;;;10.23;5.97;;;;;;;;;;5039009;28;94926;-73
2023/06/05 02:40:39;;;;;;;12.55;6.30;;;;;;;;;;5036095;27;94649;-73
2023/06/05 02:43:05;;;;;;;16.23;6.80;;;;;;;;;;5017713;28;94610;-73
2023/06/05 02:45:35;;;;;;;10.32;6.10;;;;;;;;;;5035442;27;92477;-73
2023/06/05 02:48:01;;;;;;;8.25;5.93;;;;;;;;;;5034178;27;94854;-73
2023/06/05 02:50:28;;;;;;;12.23;6.20;;;;;;;;;;5017767;28;94651;-73
2023/06/05 02:52:54;;;;;;;9.57;6.40;;;;;;;;;;5035732;27;92526;-73
2023/06/05 02:55:21;;;;;;;11.43;6.53;;;;;;;;;;5035187;28;94250;-73
2023/06/05 02:57:48;;;;;;;16.27;6.97;;;;;;;;;;5035516;28;94800;-73
2023/06/05 03:00:16;;;;;;;9.85;6.20;;;;;;;;;;5037447;28;92697;-73
2023/06/05 03:02:48;;;;;;;12.25;6.70;;;;;;;;;;5035567;28;94415;-73
2023/06/05 03:05:17;;;;;;;11.30;7.13;;;;;;;;;;5034670;27;91655;-73
2023/06/05 03:07:43;;;;;;;9.50;6.30;;;;;;;;;;5035710;28;93457;-73
2023/06/05 03:10:10;;;;;;;10.27;6.63;;;;;;;;;;5034012;27;94483;-73
2023/06/05 03:12:36;;;;;;;14.23;6.53;;;;;;;;;;5033907;27;94938;-73
2023/06/05 03:15:03;;;;;;;11.65;7.40;;;;;;;;;;5017241;28;97382;-73
2023/06/05 03:17:30;;;;;;;8.98;6.40;;;;;;;;;;5034441;28;93303;-73
2023/06/05 03:19:57;;;;;;;11.70;6.93;;;;;;;;;;5033730;28;92511;-73
2023/06/05 03:22:24;;;;;;;8.40;6.25;;;;;;;;;;5038182;28;94398;-72
2023/06/05 03:24:51;;;;;;;10.73;6.53;;;;;;;;;;5034718;27;92564;-72
2023/06/05 03:27:19;;;;;;;10.75;6.93;;;;;;;;;;5034856;28;94220;-73
2023/06/05 03:29:46;;;;;;;14.13;7.57;;;;;;;;;;5017355;28;92795;-73
2023/06/05 03:32:12;;;;;;;14.95;7.28;;;;;;;;;;5035011;27;92548;-72
2023/06/05 03:34:42;;;;;;;13.35;6.72;;;;;;;;;;5034876;28;94811;-73
2023/06/05 03:37:09;;;;;;;12.18;6.93;;;;;;;;;;5033146;28;96801;-72
2023/06/05 03:39:35;;;;;;;8.95;6.60;;;;;;;;;;5034717;28;92497;-72
2023/06/05 03:42:03;;;;;;;15.80;7.25;;;;;;;;;;5037389;28;94435;-73
2023/06/05 03:44:30;;;;;;;13.18;7.20;;;;;;;;;;5034596;27;92445;-72
2023/06/05 03:46:57;;;;;;;11.85;7.18;;;;;;;;;;5034521;28;94725;-72
2023/06/05 03:49:25;;;;;;;12.27;7.03;;;;;;;;;;5016595;28;94854;-73
2023/06/05 03:51:52;;;;;;;16.05;7.78;;;;;;;;;;5016605;28;92444;-72
2023/06/05 03:54:18;;;;;;;12.23;7.53;;;;;;;;;;5034892;28;94329;-72
2023/06/05 03:56:49;;;;;;;15.38;7.63;;;;;;;;;;5016578;28;94831;-72
2023/06/05 03:59:19;;;;;;;16.38;7.68;;;;;;;;;;5034498;28;92469;-72
2023/06/05 04:01:46;;;;;;;19.27;7.82;;;;;;;;;;5033067;28;94878;-72
2023/06/05 04:04:13;;;;;;;16.60;8.05;;;;;;;;;;5037438;27;94790;-72
2023/06/05 04:06:40;;;;;;;17.77;8.45;;;;;;;;;;5035457;27;94596;-73
2023/06/05 04:09:11;;;;;;;13.98;7.75;;;;;;;;;;5020014;28;94720;-73
2023/06/05 04:11:39;;;;;;;13.38;7.13;;;;;;;;;;5020153;28;92423;-73
2023/06/05 04:14:06;;;;;;;10.70;7.50;;;;;;;;;;5037915;27;97180;-73
2023/06/05 04:16:34;;;;;;;11.65;7.53;;;;;;;;;;5019541;28;94959;-73
2023/06/05 04:19:00;;;;;;;11.05;7.50;;;;;;;;;;5038424;27;91886;-72
2023/06/05 04:21:27;;;;;;;16.00;8.20;;;;;;;;;;5037802;27;93567;-73
2023/06/05 04:23:56;;;;;;;13.40;7.88;;;;;;;;;;5037288;28;97528;-72
2023/06/05 04:26:24;;;;;;;18.13;9.25;;;;;;;;;;5039519;28;94861;-72
2023/06/05 04:28:51;;;;;;;13.90;8.23;;;;;;;;;;5037677;27;95038;-73
2023/06/05 04:31:17;;;;;;;12.48;7.72;;;;;;;;;;5037812;28;92384;-72
2023/06/05 04:33:44;;;;;;;12.80;7.55;;;;;;;;;;5037844;27;94151;-72
2023/06/05 04:36:11;;;;;;;19.45;8.68;;;;;;;;;;5037166;27;94501;-73
2023/06/05 04:38:39;;;;;;;15.02;8.55;;;;;;;;;;5037909;28;92456;-72
2023/06/05 04:41:06;;;;;;;13.07;7.60;;;;;;;;;;5037265;28;94384;-72
2023/06/05 04:43:33;;;;;;;16.00;8.07;;;;;;;;;;5038217;27;92747;-72
2023/06/05 04:46:00;;;;;;;14.18;8.80;;;;;;;;;;5019039;28;92423;-73
2023/06/05 04:48:27;;;;;;;13.48;8.05;;;;;;;;;;5022710;28;94306;-73
2023/06/05 04:50:58;;;;;;;17.10;8.27;;;;;;;;;;5035830;28;94877;-73
2023/06/05 04:53:28;;;;;;;14.80;8.05;;;;;;;;;;5037420;28;96326;-73
2023/06/05 04:55:55;;;;;;;18.00;8.03;;;;;;;;;;5019651;28;94487;-73
2023/06/05 04:58:21;;;;;;;14.68;8.05;;;;;;;;;;5037436;28;92853;-73
2023/06/05 05:00:49;;;;;;;15.38;8.10;;;;;;;;;;5036724;28;95252;-73
2023/06/05 05:03:16;;;;;;;16.27;7.53;;;;;;;;;;5035475;27;94599;-73
2023/06/05 05:05:42;;;;;;;16.17;9.18;;;;;;;;;;5019139;28;92550;-73
2023/06/05 05:08:09;;;;;;;12.65;8.18;;;;;;;;;;5037902;28;93932;-73
2023/06/05 05:10:36;;;;;;;16.45;8.30;;;;;;;;;;5040032;28;97165;-72
2023/06/05 05:13:03;;;;;;;15.07;8.05;;;;;;;;;;5037007;28;94837;-72
2023/06/05 05:15:29;;;;;;;17.17;7.97;;;;;;;;;;5035244;28;95714;-72
2023/06/05 05:17:56;;;;;;;17.55;8.40;;;;;;;;;;5036581;27;92643;-73
2023/06/05 05:20:23;;;;;;;13.52;7.93;;;;;;;;;;5018930;28;95682;-73
2023/06/05 05:22:50;;;;;;;11.38;7.80;;;;;;;;;;5035440;28;94554;-73
2023/06/05 05:25:17;;;;;;;19.08;7.72;;;;;;;;;;5036418;28;92823;-72
2023/06/05 05:27:43;;;;;;;17.52;8.43;;;;;;;;;;5018962;28;94596;-72
2023/06/05 05:30:10;;;;;;;17.33;8.40;;;;;;;;;;5036117;28;94950;-72
2023/06/05 05:32:36;;;;;;;19.90;7.80;;;;;;;;;;5022384;28;91700;-72
2023/06/05 05:35:03;;;;;;;17.30;8.20;;;;;;;;;;5036515;27;94543;-72
2023/06/05 05:37:31;;;;;;;18.23;8.82;;;;;;;;;;5018912;28;92405;-73
2023/06/05 05:39:58;;;;;;;12.80;8.05;;;;;;;;;;5035037;28;94852;-73
2023/06/05 05:42:24;;;;;;;15.65;8.95;;;;;;;;;;5035855;27;94424;-72
2023/06/05 05:44:51;;;;;;;26.13;8.38;;;;;;;;;;5036229;27;92359;-72
2023/06/05 05:47:17;;;;;;;15.07;8.10;;;;;;;;;;5018445;28;94202;-73
2023/06/05 05:49:45;;;;;;;13.02;7.07;;;;;;;;;;5018230;28;94701;-72
2023/06/05 05:52:11;;;;;;;17.95;8.60;;;;;;;;;;5039516;27;92410;-73
2023/06/05 05:54:38;;;;;;;16.08;8.48;;;;;;;;;;5036252;28;93708;-73
2023/06/05 05:57:04;;;;;;;15.68;7.82;;;;;;;;;;5036964;28;91737;-72
2023/06/05 05:59:31;;;;;;;21.15;8.05;;;;;;;;;;5036300;28;92598;-73
2023/06/05 06:01:59;;;;;;;13.60;8.40;;;;;;;;;;5036089;28;96467;-73
2023/06/05 06:04:26;;;;;;;17.05;8.27;;;;;;;;;;5034709;28;94783;-73
2023/06/05 06:06:52;;;;;;;14.20;7.60;;;;;;;;;;5036096;27;96651;-73
2023/06/05 06:09:19;;;;;;;15.10;8.52;;;;;;;;;;5035947;27;93872;-73
2023/06/05 06:11:46;;;;;;;14.88;7.57;;;;;;;;;;5036079;27;92439;-73
2023/06/05 06:14:12;;;;;;;9.95;7.63;;;;;;;;;;5039209;28;94331;-73
2023/06/05 06:16:40;;;;;;;13.05;7.72;;;;;;;;;;5036058;28;92456;-72
2023/06/05 06:19:06;;;;;;;17.40;8.32;;;;;;;;;;5036276;27;93736;-73
2023/06/05 06:21:33;;;;;;;16.55;8.20;;;;;;;;;;5036161;28;93935;-73
2023/06/05 06:23:59;;;;;;;12.23;7.43;;;;;;;;;;5035546;28;92562;-73
2023/06/05 06:26:26;;;;;;;14.48;8.38;;;;;;;;;;5035823;28;94944;-73
2023/06/05 06:28:54;;;;;;;12.07;8.02;;;;;;;;;;5033317;27;96845;-72
2023/06/05 06:31:21;;;;;;;20.85;8.82;;;;;;;;;;5017702;28;92448;-73
2023/06/05 06:33:48;;;;;;;14.23;8.65;;;;;;;;;;5035773;27;94264;-72
2023/06/05 06:36:17;;;;;;;14.50;8.75;;;;;;;;;;5038742;27;94126;-73
2023/06/05 06:38:43;;;;;;;16.13;9.00;;;;;;;;;;5035774;28;93592;-72
2023/06/05 06:41:10;;;;;;;17.33;8.65;;;;;;;;;;5035245;27;94469;-73
2023/06/05 06:43:36;;;;;;;12.73;7.72;;;;;;;;;;5035675;27;92413;-73
2023/06/05 06:46:04;;;;;;;14.15;8.75;;;;;;;;;;5035790;27;94623;-73
2023/06/05 06:48:32;;;;;;;13.23;8.77;;;;;;;;;;5035174;28;94492;-73
2023/06/05 06:50:59;;;;;;;12.95;8.02;;;;;;;;;;5035497;28;92435;-73
2023/06/05 06:53:26;;;;;;;14.60;7.72;;;;;;;;;;5032461;27;95111;-74
2023/06/05 06:55:52;;;;;;;16.92;8.00;;;;;;;;;;5017499;28;94540;-73
2023/06/05 06:58:19;;;;;;;14.70;6.95;;;;;;;;;;5038156;28;92645;-72
2023/06/05 07:00:47;;;;;;;15.10;8.18;;;;;;;;;;5017605;28;94469;-72
2023/06/05 07:03:13;;;;;;;18.40;7.68;;;;;;;;;;5034987;28;92395;-73
2023/06/05 07:05:40;;;;;;;17.23;8.07;;;;;;;;;;5035277;28;93471;-73
2023/06/05 07:08:06;;;;;;;14.57;6.93;;;;;;;;;;5035225;27;96240;-73
2023/06/05 07:10:33;;;;;;;12.52;7.80;;;;;;;;;;5035695;27;91789;-74
2023/06/05 07:13:00;;;;;;;16.10;7.97;;;;;;;;;;5034974;28;93470;-73
2023/06/05 07:15:28;;;;;;;14.65;7.03;;;;;;;;;;5035056;27;96463;-73
2023/06/05 07:17:54;;;;;;;14.57;7.07;;;;;;;;;;5033280;27;94881;-74
2023/06/05 07:20:21;;;;;;;11.52;7.10;;;;;;;;;;5038076;28;95953;-73
2023/06/05 07:22:47;;;;;;;13.18;7.53;;;;;;;;;;5033596;27;92547;-73
2023/06/05 07:25:16;;;;;;;13.52;7.43;;;;;;;;;;5034751;28;96096;-73
2023/06/05 07:27:46;;;;;;;12.30;7.50;;;;;;;;;;5017283;28;93632;-73
2023/06/05 07:30:14;;;;;;;21.60;8.00;;;;;;;;;;5034832;28;92489;-74
2023/06/05 07:32:42;;;;;;;17.73;7.78;;;;;;;;;;5034669;28;94210;-74
2023/06/05 07:35:09;;;;;;;11.93;7.95;;;;;;;;;;5017342;28;93941;-74
2023/06/05 07:37:35;;;;;;;14.48;8.00;;;;;;;;;;5034034;28;92461;-73
2023/06/05 07:40:02;;;;;;;16.45;7.13;;;;;;;;;;5037694;28;94306;-74
2023/06/05 07:42:30;;;;;;;15.75;8.02;;;;;;;;;;5014356;28;94851;-73
2023/06/05 07:44:57;;;;;;;16.08;7.28;;;;;;;;;;5034256;28;96003;-74
2023/06/05 07:47:23;;;;;;;12.68;7.05;;;;;;;;;;5034502;28;95199;-74
2023/06/05 07:49:57;;;;;;;10.88;7.35;;;;;;;;;;5034430;28;92446;-74
2023/06/05 07:52:23;;;;;;;16.77;7.38;;;;;;;;;;5034421;28;94746;-74
2023/06/05 07:54:49;;;;;;;12.38;7.32;;;;;;;;;;5033585;28;93455;-73
2023/06/05 07:57:16;;;;;;;12.77;7.50;;;;;;;;;;5034486;27;92589;-74
2023/06/05 07:59:43;;;;;;;10.82;7.20;;;;;;;;;;5034971;28;94813;-73
2023/06/05 08:02:09;;;;;;;17.30;7.00;;;;;;;;;;5037357;28;93437;-73
2023/06/05 08:04:35;;;;;;;11.50;7.50;;;;;;;;;;5016681;28;94778;-74
2023/06/05 08:07:02;;;;;;;9.77;7.22;;;;;;;;;;5032578;28;97359;-74
2023/06/05 08:09:28;;;;;;;13.23;6.78;;;;;;;;;;5034528;28;92450;-74
2023/06/05 08:11:55;;;;;;;10.57;7.45;;;;;;;;;;5016333;28;94314;-74
2023/06/05 08:14:22;;;;;;;8.93;6.20;;;;;;;;;;5034055;28;94562;-73
2023/06/05 08:16:48;;;;;;;11.77;6.85;;;;;;;;;;5034176;28;92463;-73
2023/06/05 08:19:15;;;;;;;11.07;6.78;;;;;;;;;;5034388;28;92582;-74
2023/06/05 08:21:41;;;;;;;15.10;7.25;;;;;;;;;;5034175;28;94679;-74
2023/06/05 08:24:08;;;;;;;14.43;6.97;;;;;;;;;;5019637;27;91776;-73
2023/06/05 08:26:36;;;;;;;14.55;7.25;;;;;;;;;;5034066;28;94551;-73
2023/06/05 08:29:02;;;;;;;11.57;7.03;;;;;;;;;;5016159;28;92508;-74
2023/06/05 08:31:29;;;;;;;11.23;7.80;;;;;;;;;;5032419;27;94760;-73
2023/06/05 08:33:56;;;;;;;13.70;7.72;;;;;;;;;;5015925;28;97172;-74
2023/06/05 08:36:24;;;;;;;11.40;7.78;;;;;;;;;;5034393;28;92359;-74
2023/06/05 08:38:50;;;;;;;10.50;7.22;;;;;;;;;;5033915;27;94081;-73
2023/06/05 08:41:17;;;;;;;19.83;7.88;;;;;;;;;;5033884;28;94443;-73
2023/06/05 08:43:47;;;;;;;10.02;7.80;;;;;;;;;;5033716;27;92395;-74
2023/06/05 08:46:14;;;;;;;10.48;7.00;;;;;;;;;;5036943;28;94284;-74
2023/06/05 08:48:48;;;;;;;17.50;8.27;;;;;;;;;;5034426;28;92321;-74
2023/06/05 08:51:16;;;;;;;12.38;7.80;;;;;;;;;;5016321;28;92378;-74
2023/06/05 08:53:45;;;;;;;11.05;7.25;;;;;;;;;;5036328;27;93933;-73
2023/06/05 08:56:12;;;;;;;15.90;7.95;;;;;;;;;;5017968;28;94854;-73
2023/06/05 08:58:39;;;;;;;13.55;8.38;;;;;;;;;;5019089;28;96831;-73
2023/06/05 09:01:05;;;;;;;12.38;8.23;;;;;;;;;;5036953;27;95084;-74
2023/06/05 09:03:35;;;;;;;12.20;7.53;;;;;;;;;;5019249;28;94241;-74
2023/06/05 09:06:04;;;;;;;12.97;7.80;;;;;;;;;;5019276;28;94309;-74
2023/06/05 09:08:32;;;;;;;11.38;7.93;;;;;;;;;;5022018;28;94481;-74
2023/06/05 09:11:17;;;;;;;17.17;7.53;;;;;;;;;;5036918;27;94268;-74
2023/06/05 09:13:44;;;;;;;14.75;7.10;;;;;;;;;;5037460;28;93654;-74
2023/06/05 09:16:11;;;;;;;9.48;7.07;;;;;;;;;;5035614;28;92820;-73
2023/06/05 09:18:54;;;;;;;18.55;7.35;;;;;;;;;;5019280;28;94825;-73
2023/06/05 09:21:21;;;;;;;9.65;6.80;;;;;;;;;;5034977;27;96964;-73
2023/06/05 09:23:47;;;;;;;10.07;7.40;;;;;;;;;;5037103;27;92398;-74
2023/06/05 09:26:15;;;;;;;9.90;7.22;;;;;;;;;;5036814;27;94152;-74
2023/06/05 09:28:54;;;;;;;8.38;6.72;;;;;;;;;;5036477;28;94472;-74
2023/06/05 09:31:22;;;;;;;16.10;7.25;;;;;;;;;;5021842;28;92484;-73
2023/06/05 09:33:56;;;;;;;13.90;7.00;;;;;;;;;;5018587;28;95120;-74
2023/06/05 09:36:23;;;;;;;12.60;7.15;;;;;;;;;;5018861;28;92504;-74
2023/06/05 09:38:50;;;;;;;10.75;7.38;;;;;;;;;;5036896;27;94235;-74
2023/06/05 09:41:21;;;;;;;9.50;7.05;;;;;;;;;;5036143;28;95202;-74
2023/06/05 09:43:49;;;;;;;12.07;7.70;;;;;;;;;;5019099;28;92558;-74
2023/06/05 09:46:17;;;;;;;14.45;7.30;;;;;;;;;;5034877;27;95241;-73
2023/06/05 09:48:50;;;;;;;9.57;6.55;;;;;;;;;;5036422;28;94460;-74
2023/06/05 09:51:18;;;;;;;9.40;6.55;;;;;;;;;;5039678;28;92470;-73
2023/06/05 09:53:46;;;;;;;9.93;6.47;;;;;;;;;;5036135;27;94634;-74
2023/06/05 09:56:15;;;;;;;9.68;6.18;;;;;;;;;;5035198;28;92525;-74
2023/06/05 09:58:48;;;;;;;8.85;6.40;;;;;;;;;;5036462;27;94784;-75
2023/06/05 10:01:22;;;;;;;15.02;6.60;;;;;;;;;;5035922;28;94844;-75
2023/06/05 10:03:57;;;;;;;25.08;6.68;;;;;;;;;;5018128;28;91685;-75
2023/06/05 10:06:28;;;;;;;13.02;6.07;;;;;;;;;;5036549;28;92826;-76
2023/06/05 10:08:57;;;;;;;11.63;5.53;;;;;;;;;;5036094;28;93783;-75
2023/06/05 10:11:25;;;;;;;7.18;5.80;;;;;;;;;;5034551;27;94797;-75
2023/06/05 10:13:52;;;;;;;11.52;5.95;;;;;;;;;;5039168;28;97015;-75
2023/06/05 10:16:20;;;;;;;9.77;5.00;;;;;;;;;;5001540;28;92461;-75
2023/06/05 10:18:53;;;;;;;9.43;5.82;;;;;;;;;;5036225;28;94218;-75
2023/06/05 10:21:20;;;;;;;9.30;5.47;;;;;;;;;;5035828;27;96542;-75
2023/06/05 10:23:51;;;;;;;11.60;5.85;;;;;;;;;;5036114;27;92461;-75
2023/06/05 10:26:21;;;;;;;8.85;5.75;;;;;;;;;;5035908;27;94545;-75
2023/06/05 10:29:06;;;;;;;10.35;5.50;;;;;;;;;;5036354;27;94459;-75
2023/06/05 10:31:58;;;;;;;12.93;5.35;;;;;;;;;;5036023;28;92433;-75
2023/06/05 10:34:47;;;;;;;7.07;5.10;;;;;;;;;;5035644;28;94212;-76
2023/06/05 10:37:22;;;;;;;7.72;5.47;;;;;;;;;;5037030;28;97046;-75
2023/06/05 10:39:50;;;;;;;9.02;4.90;;;;;;;;;;5035597;28;97136;-75
2023/06/05 10:42:26;;;;;;;5.72;4.65;;;;;;;;;;5035294;27;94448;-75
2023/06/05 10:44:53;;;;;;;9.20;5.00;;;;;;;;;;5035586;28;93825;-75
2023/06/05 10:47:31;;;;;;;8.90;5.15;;;;;;;;;;5035499;27;94712;-75
2023/06/05 10:50:19;;;;;;;13.65;5.40;;;;;;;;;;5035412;27;94471;-75
2023/06/05 10:52:46;;;;;;;6.78;4.97;;;;;;;;;;5035277;28;92978;-75
2023/06/05 10:55:15;;;;;;;10.93;4.53;;;;;;;;;;5035943;27;94676;-75
2023/06/05 10:58:00;;;;;;;9.10;4.60;;;;;;;;;;5035445;28;94864;-75
2023/06/05 11:00:27;;;;;;;6.40;4.55;;;;;;;;;;5020414;28;92915;-75
2023/06/05 11:02:54;;;;;;;6.85;4.50;;;;;;;;;;5033665;28;97494;-75
2023/06/05 11:05:21;;;;;;;7.70;4.63;;;;;;;;;;5035112;27;92458;-75
2023/06/05 11:07:48;;;;;;;6.22;4.50;;;;;;;;;;5035263;28;94475;-75
2023/06/05 11:10:17;;;;;;;5.80;4.10;;;;;;;;;;5035003;28;94407;-76
2023/06/05 11:12:50;;;;;;;6.40;4.32;;;;;;;;;;5035274;28;92399;-75
2023/06/05 11:15:34;;;;;;;11.82;4.60;;;;;;;;;;5034799;28;94762;-75
2023/06/05 11:18:19;;;;;;;8.15;4.00;;;;;;;;;;5034699;28;95057;-75
2023/06/05 11:20:49;;;;;;;6.32;4.10;;;;;;;;;;5017727;28;91754;-75
2023/06/05 11:23:15;;;;;;;12.43;4.22;;;;;;;;;;5037872;27;93948;-75
2023/06/05 11:25:42;;;;;;;7.00;4.68;;;;;;;;;;5034671;27;92349;-75
2023/06/05 11:28:09;;;;;;;7.28;4.45;;;;;;;;;;5033659;27;94959;-75
2023/06/05 11:30:40;;;;;;;11.30;4.10;;;;;;;;;;5034012;27;94461;-75
2023/06/05 11:33:20;;;;;;;5.63;4.15;;;;;;;;;;5035113;28;92520;-75
2023/06/05 11:35:48;;;;;;;5.35;3.53;;;;;;;;;;5034839;27;94332;-75
2023/06/05 11:38:15;;;;;;;6.72;3.40;;;;;;;;;;5034953;28;94563;-75
2023/06/05 11:40:45;;;;;;;8.68;3.80;;;;;;;;;;5034860;28;92427;-75
2023/06/05 11:43:12;;;;;;;5.30;3.53;;;;;;;;;;5035107;28;94302;-75
2023/06/05 11:45:39;;;;;;;6.97;3.78;;;;;;;;;;5038047;27;92600;-75
2023/06/05 11:48:10;;;;;;;5.75;4.15;;;;;;;;;;5034790;27;93374;-75
2023/06/05 11:50:51;;;;;;;6.18;3.78;;;;;;;;;;5034467;28;94966;-75
2023/06/05 11:53:18;;;;;;;7.35;3.67;;;;;;;;;;5033146;27;95200;-75
2023/06/05 11:58:22;;;;;;;10.48;4.15;;;;;;;;;;5034459;28;94476;-75
2023/06/05 12:00:48;;;;;;;5.57;3.55;;;;;;;;;;5034354;28;92407;-75
2023/06/05 12:03:21;;;;;;;5.90;3.75;;;;;;;;;;5034334;27;94687;-76
2023/06/05 12:05:48;;;;;;;9.07;3.58;;;;;;;;;;5037259;27;94425;-76
2023/06/05 12:08:21;;;;;;;4.03;3.05;;;;;;;;;;5034166;27;94315;-75
2023/06/05 12:10:47;;;;;;;8.35;3.55;;;;;;;;;;5034767;27;94021;-76
2023/06/05 12:13:15;;;;;;;8.13;3.75;;;;;;;;;;5034593;27;92490;-75
2023/06/05 12:15:41;;;;;;;4.60;3.28;;;;;;;;;;5034285;28;94268;-76
2023/06/05 12:18:09;;;;;;;11.05;4.15;;;;;;;;;;5014468;28;96596;-76
2023/06/05 12:20:42;;;;;;;5.88;3.38;;;;;;;;;;5013754;28;92547;-76
2023/06/05 12:23:16;;;;;;;7.97;3.80;;;;;;;;;;5014095;28;94225;-76
2023/06/05 12:25:43;;;;;;;10.07;3.33;;;;;;;;;;5013764;28;95019;-76
2023/06/05 12:28:19;;;;;;;8.57;4.03;;;;;;;;;;5019102;28;92424;-76
2023/06/05 12:30:46;;;;;;;6.55;3.58;;;;;;;;;;5017160;28;93846;-76
2023/06/05 12:33:14;;;;;;;4.63;3.45;;;;;;;;;;5017684;28;92518;-76
2023/06/05 12:35:40;;;;;;;10.82;3.55;;;;;;;;;;5018058;28;94245;-76
2023/06/05 12:38:08;;;;;;;4.80;3.45;;;;;;;;;;5017400;28;94592;-76
2023/06/05 12:40:34;;;;;;;7.95;4.10;;;;;;;;;;5020446;28;92596;-76
2023/06/05 12:43:03;;;;;;;9.30;4.45;;;;;;;;;;5036017;28;94798;-76
2023/06/05 12:45:30;;;;;;;8.40;3.60;;;;;;;;;;5037006;28;94829;-76
2023/06/05 12:47:57;;;;;;;6.45;3.97;;;;;;;;;;5037406;27;92503;-75
2023/06/05 12:50:25;;;;;;;8.00;3.80;;;;;;;;;;5040475;28;94539;-76
2023/06/05 12:52:52;;;;;;;5.05;3.40;;;;;;;;;;5037686;28;92426;-76
2023/06/05 12:55:18;;;;;;;13.93;4.15;;;;;;;;;;5037435;27;94224;-76
2023/06/05 12:57:45;;;;;;;6.35;3.95;;;;;;;;;;5019017;28;94773;-76
2023/06/05 13:00:13;;;;;;;14.15;4.28;;;;;;;;;;5037771;27;91889;-76
2023/06/05 13:02:47;;;;;;;3.95;3.55;;;;;;;;;;5037476;28;92873;-76
2023/06/05 13:05:15;;;;;;;4.80;3.00;;;;;;;;;;5037131;28;94579;-76
2023/06/05 13:07:41;;;;;;;9.20;4.25;;;;;;;;;;5035725;28;94855;-76
2023/06/05 13:10:08;;;;;;;7.80;4.03;;;;;;;;;;5019245;28;95828;-75
2023/06/05 13:12:35;;;;;;;5.82;3.33;;;;;;;;;;5022265;28;93407;-76
2023/06/05 13:15:03;;;;;;;5.40;3.67;;;;;;;;;;5036986;27;94773;-76
2023/06/05 13:17:37;;;;;;;6.85;4.03;;;;;;;;;;5036583;28;93906;-76
2023/06/05 13:20:08;;;;;;;9.60;3.50;;;;;;;;;;5037026;27;92425;-76
2023/06/05 13:22:35;;;;;;;14.52;5.10;;;;;;;;;;5035865;28;94065;-76
2023/06/05 13:25:02;;;;;;;11.98;4.60;;;;;;;;;;5018933;28;93801;-76
2023/06/05 13:27:28;;;;;;;6.47;3.70;;;;;;;;;;5036864;28;92431;-76
2023/06/05 13:29:56;;;;;;;14.60;4.00;;;;;;;;;;5037005;28;95012;-76
2023/06/05 13:32:22;;;;;;;8.40;3.97;;;;;;;;;;5034897;27;96909;-76
2023/06/05 13:34:49;;;;;;;6.60;3.97;;;;;;;;;;5039923;28;92377;-77
2023/06/05 13:37:15;;;;;;;9.88;4.70;;;;;;;;;;5035103;28;94716;-76
2023/06/05 13:39:42;;;;;;;8.75;3.67;;;;;;;;;;5035593;27;92448;-77
2023/06/05 13:42:08;;;;;;;9.02;4.55;;;;;;;;;;5018725;28;94204;-77
2023/06/05 13:44:35;;;;;;;10.93;4.30;;;;;;;;;;5036352;28;94468;-76
2023/06/05 13:47:04;;;;;;;7.90;3.72;;;;;;;;;;5035908;28;92592;-76
2023/06/05 13:49:31;;;;;;;8.73;4.60;;;;;;;;;;5037170;27;94859;-76
2023/06/05 13:51:57;;;;;;;4.35;3.95;;;;;;;;;;5036474;28;93985;-76
2023/06/05 13:54:24;;;;;;;12.75;4.15;;;;;;;;;;5036118;27;92462;-77
2023/06/05 13:56:51;;;;;;;9.02;4.45;;;;;;;;;;5037693;27;94912;-76
2023/06/05 13:59:17;;;;;;;11.73;3.90;;;;;;;;;;5018539;28;92587;-76
2023/06/05 14:01:44;;;;;;;5.93;4.45;;;;;;;;;;5018415;28;94411;-77
2023/06/05 14:04:12;;;;;;;10.70;4.07;;;;;;;;;;5035931;28;94811;-76
2023/06/05 14:06:41;;;;;;;11.68;4.30;;;;;;;;;;5036337;27;92367;-76
2023/06/05 14:09:08;;;;;;;8.05;4.07;;;;;;;;;;5036335;27;94566;-77
2023/06/05 14:11:36;;;;;;;9.88;4.47;;;;;;;;;;5035986;28;94146;-76
2023/06/05 14:14:03;;;;;;;7.68;4.85;;;;;;;;;;5036730;28;91660;-76
2023/06/05 14:16:30;;;;;;;4.60;3.47;;;;;;;;;;5038945;27;93603;-77
2023/06/05 14:18:57;;;;;;;8.90;4.35;;;;;;;;;;5036161;27;92419;-77
2023/06/05 14:21:23;;;;;;;10.93;4.30;;;;;;;;;;5034228;27;94912;-77
2023/06/05 14:23:53;;;;;;;6.78;3.97;;;;;;;;;;5035657;28;94410;-77
2023/06/05 14:26:21;;;;;;;6.57;4.40;;;;;;;;;;5036041;27;92407;-77
2023/06/05 14:28:48;;;;;;;13.30;4.75;;;;;;;;;;5035936;28;94721;-77
2023/06/05 14:31:14;;;;;;;9.85;4.78;;;;;;;;;;5035607;28;94785;-77
2023/06/05 14:33:41;;;;;;;6.18;4.50;;;;;;;;;;5035711;28;92515;-77
2023/06/05 14:36:07;;;;;;;8.30;4.15;;;;;;;;;;5017626;28;94949;-77
2023/06/05 14:38:34;;;;;;;14.98;4.72;;;;;;;;;;5021245;28;93958;-77
2023/06/05 14:41:01;;;;;;;6.65;4.57;;;;;;;;;;5035430;27;94142;-77
2023/06/05 14:43:27;;;;;;;14.95;4.13;;;;;;;;;;5035406;28;94511;-77